TRA62A GCLP-EHAM
Flight info
| Callsign | TRA62A |
|---|---|
| Flight time | 3h 53m |
| Altitude | 34000 |
| Route | VASTO DCT NIDEB DCT TIGGI DCT EXFUN DCT PINEK DCT LOTEE DCT AZFIC DCT ERIGA DCT GODIX DCT PODEM DCT BAZOS DCT LUMIL DCT BELOB UY873 DENUT |
| Aircraft | B738/M-SDE2E3FGHIRWXY/LB1 |
Departure
| Time | 2026-05-05 15:42 |
|---|---|
| Airport | Gran Canaria Airport (GCLP) |
Arrival
| Time | 2026-05-05 19:35 |
|---|---|
| Airport | Amsterdam Airport Schiphol (EHAM) |
| Time | Latitude | Longitude | Altitude | Speed | Heading |
|---|---|---|---|---|---|
| 2026-05-05 15:09 | 27.93857 | -15.38812 | 125 ft | 0 kts | 291° |
| 2026-05-05 15:29 | 27.93856 | -15.38810 | 127 ft | 0 kts | 291° |
| 2026-05-05 15:31 | 27.93854 | -15.38803 | 126 ft | 2 kts | 293° |
| 2026-05-05 15:31 | 27.93848 | -15.38787 | 125 ft | 2 kts | 291° |
| 2026-05-05 15:31 | 27.93845 | -15.38776 | 124 ft | 1 kts | 292° |
| 2026-05-05 15:32 | 27.93841 | -15.38760 | 123 ft | 2 kts | 267° |
| 2026-05-05 15:32 | 27.93844 | -15.38744 | 122 ft | 2 kts | 248° |
| 2026-05-05 15:32 | 27.93851 | -15.38729 | 122 ft | 2 kts | 227° |
| 2026-05-05 15:32 | 27.93863 | -15.38719 | 121 ft | 1 kts | 206° |
| 2026-05-05 15:33 | 27.93869 | -15.38716 | 121 ft | 1 kts | 198° |
| 2026-05-05 15:33 | 27.93872 | -15.38715 | 121 ft | 0 kts | 201° |
| 2026-05-05 15:35 | 27.93865 | -15.38718 | 121 ft | 3 kts | 201° |
| 2026-05-05 15:36 | 27.93824 | -15.38735 | 122 ft | 8 kts | 201° |
| 2026-05-05 15:36 | 27.93766 | -15.38762 | 124 ft | 9 kts | 202° |
| 2026-05-05 15:36 | 27.93694 | -15.38794 | 125 ft | 12 kts | 201° |
| 2026-05-05 15:36 | 27.93599 | -15.38835 | 125 ft | 15 kts | 201° |
| 2026-05-05 15:37 | 27.93510 | -15.38870 | 124 ft | 11 kts | 197° |
| 2026-05-05 15:37 | 27.93444 | -15.38840 | 121 ft | 12 kts | 118° |
| 2026-05-05 15:37 | 27.93378 | -15.38767 | 112 ft | 17 kts | 195° |
| 2026-05-05 15:37 | 27.93252 | -15.38823 | 104 ft | 20 kts | 202° |
| 2026-05-05 15:38 | 27.93122 | -15.38887 | 104 ft | 19 kts | 205° |
| 2026-05-05 15:38 | 27.92990 | -15.38947 | 101 ft | 20 kts | 201° |
| 2026-05-05 15:38 | 27.92865 | -15.39002 | 101 ft | 18 kts | 201° |
| 2026-05-05 15:38 | 27.92745 | -15.39055 | 104 ft | 19 kts | 202° |
| 2026-05-05 15:39 | 27.92617 | -15.39111 | 108 ft | 19 kts | 201° |
| 2026-05-05 15:39 | 27.92509 | -15.39159 | 114 ft | 14 kts | 201° |
| 2026-05-05 15:39 | 27.92431 | -15.39193 | 119 ft | 11 kts | 201° |
| 2026-05-05 15:39 | 27.92345 | -15.39231 | 119 ft | 15 kts | 201° |
| 2026-05-05 15:40 | 27.92253 | -15.39273 | 121 ft | 12 kts | 202° |
| 2026-05-05 15:40 | 27.92178 | -15.39303 | 123 ft | 11 kts | 193° |
| 2026-05-05 15:40 | 27.92088 | -15.39305 | 121 ft | 14 kts | 174° |
| 2026-05-05 15:40 | 27.91972 | -15.39296 | 118 ft | 16 kts | 171° |
| 2026-05-05 15:41 | 27.91939 | -15.39206 | 115 ft | 16 kts | 31° |
| 2026-05-05 15:41 | 27.92071 | -15.39154 | 110 ft | 31 kts | 21° |
| 2026-05-05 15:41 | 27.92515 | -15.38955 | 98 ft | 105 kts | 21° |
| 2026-05-05 15:41 | 27.93409 | -15.38568 | 97 ft | 164 kts | 22° |
| 2026-05-05 15:42 | 27.94492 | -15.38070 | 687 ft | 172 kts | 20° |
| 2026-05-05 15:42 | 27.95576 | -15.37595 | 1462 ft | 173 kts | 24° |
| 2026-05-05 15:42 | 27.96763 | -15.37058 | 1951 ft | 184 kts | 21° |
| 2026-05-05 15:42 | 27.97950 | -15.36552 | 2377 ft | 191 kts | 20° |
| 2026-05-05 15:43 | 27.99286 | -15.36000 | 2498 ft | 217 kts | 20° |
| 2026-05-05 15:43 | 28.00820 | -15.35380 | 2572 ft | 251 kts | 20° |
| 2026-05-05 15:43 | 28.02615 | -15.34637 | 2526 ft | 298 kts | 20° |
| 2026-05-05 15:43 | 28.04652 | -15.33774 | 3014 ft | 322 kts | 20° |
| 2026-05-05 15:44 | 28.06658 | -15.32903 | 4710 ft | 300 kts | 20° |
| 2026-05-05 15:44 | 28.08464 | -15.32102 | 6362 ft | 276 kts | 20° |
| 2026-05-05 15:44 | 28.10272 | -15.31299 | 6679 ft | 295 kts | 19° |
| 2026-05-05 15:44 | 28.12318 | -15.30392 | 6077 ft | 337 kts | 20° |
| 2026-05-05 15:45 | 28.14601 | -15.29355 | 5775 ft | 362 kts | 21° |
| 2026-05-05 15:45 | 28.16865 | -15.28250 | 6788 ft | 350 kts | 23° |
| 2026-05-05 15:45 | 28.18932 | -15.27138 | 8413 ft | 319 kts | 22° |
| 2026-05-05 15:45 | 28.21064 | -15.26464 | 9008 ft | 316 kts | 2° |
| 2026-05-05 15:46 | 28.23198 | -15.26308 | 9893 ft | 308 kts | 359° |
| 2026-05-05 15:46 | 28.25324 | -15.26120 | 10574 ft | 309 kts | 2° |
| 2026-05-05 15:46 | 28.27477 | -15.25741 | 11112 ft | 315 kts | 7° |
| 2026-05-05 15:46 | 28.29619 | -15.25198 | 11699 ft | 321 kts | 9° |
| 2026-05-05 15:47 | 28.31797 | -15.24558 | 12321 ft | 326 kts | 13° |
| 2026-05-05 15:47 | 28.33208 | -15.23946 | 12725 ft | 332 kts | 22° |
| 2026-05-05 15:47 | 28.35909 | -15.22150 | 13504 ft | 341 kts | 30° |
| 2026-05-05 15:47 | 28.37881 | -15.20632 | 14059 ft | 346 kts | 31° |
| 2026-05-05 15:48 | 28.39854 | -15.19088 | 14595 ft | 351 kts | 30° |
| 2026-05-05 15:48 | 28.41900 | -15.17508 | 15138 ft | 355 kts | 30° |
| 2026-05-05 15:48 | 28.43958 | -15.15943 | 15679 ft | 358 kts | 30° |
| 2026-05-05 15:48 | 28.46029 | -15.14383 | 16168 ft | 364 kts | 29° |
| 2026-05-05 15:49 | 28.48170 | -15.12781 | 16742 ft | 365 kts | 29° |
| 2026-05-05 15:49 | 28.50299 | -15.11190 | 17199 ft | 372 kts | 29° |
| 2026-05-05 15:49 | 28.52507 | -15.09544 | 17376 ft | 387 kts | 29° |
| 2026-05-05 15:49 | 28.54804 | -15.07832 | 17613 ft | 400 kts | 29° |
| 2026-05-05 15:50 | 28.57171 | -15.06063 | 17759 ft | 415 kts | 29° |
| 2026-05-05 15:50 | 28.59598 | -15.04246 | 18006 ft | 427 kts | 29° |
| 2026-05-05 15:50 | 28.62086 | -15.02375 | 18797 ft | 422 kts | 29° |
| 2026-05-05 15:50 | 28.64536 | -15.00528 | 19246 ft | 427 kts | 29° |
| 2026-05-05 15:51 | 28.67034 | -14.98646 | 19736 ft | 431 kts | 29° |
| 2026-05-05 15:51 | 28.68745 | -14.97359 | 20094 ft | 433 kts | 28° |
| 2026-05-05 15:51 | 28.70886 | -14.95746 | 20927 ft | 425 kts | 29° |
| 2026-05-05 15:51 | 28.73338 | -14.93899 | 21604 ft | 422 kts | 29° |
| 2026-05-05 15:52 | 28.75787 | -14.92053 | 22215 ft | 422 kts | 29° |
| 2026-05-05 15:52 | 28.78240 | -14.90210 | 22499 ft | 429 kts | 28° |
| 2026-05-05 15:52 | 28.80770 | -14.88310 | 22853 ft | 434 kts | 29° |
| 2026-05-05 15:52 | 28.83284 | -14.86421 | 23019 ft | 442 kts | 29° |
| 2026-05-05 15:53 | 28.85873 | -14.84471 | 23191 ft | 450 kts | 29° |
| 2026-05-05 15:53 | 28.88515 | -14.82482 | 23232 ft | 460 kts | 29° |
| 2026-05-05 15:53 | 28.91221 | -14.80441 | 23530 ft | 465 kts | 29° |
| 2026-05-05 15:53 | 28.93901 | -14.78416 | 23936 ft | 467 kts | 29° |
| 2026-05-05 15:54 | 28.96634 | -14.76348 | 24305 ft | 470 kts | 29° |
| 2026-05-05 15:54 | 28.99340 | -14.74298 | 24650 ft | 473 kts | 29° |
| 2026-05-05 15:54 | 29.02101 | -14.72205 | 25042 ft | 477 kts | 29° |
| 2026-05-05 15:54 | 29.04854 | -14.70115 | 25447 ft | 479 kts | 29° |
| 2026-05-05 15:55 | 29.07632 | -14.68005 | 25970 ft | 478 kts | 29° |
| 2026-05-05 15:55 | 29.10017 | -14.66192 | 26369 ft | 478 kts | 29° |
| 2026-05-05 15:55 | 29.11894 | -14.64764 | 26685 ft | 478 kts | 28° |
| 2026-05-05 15:55 | 29.11904 | -14.64757 | 27161 ft | 478 kts | 28° |
| 2026-05-05 15:56 | 29.14494 | -14.62785 | 27651 ft | 475 kts | 28° |
| 2026-05-05 15:56 | 29.17242 | -14.60690 | 28182 ft | 472 kts | 28° |
| 2026-05-05 15:56 | 29.19945 | -14.58630 | 28551 ft | 473 kts | 28° |
| 2026-05-05 15:56 | 29.22682 | -14.56546 | 28928 ft | 473 kts | 28° |
| 2026-05-05 15:57 | 29.25423 | -14.54459 | 29283 ft | 474 kts | 28° |
| 2026-05-05 15:57 | 29.28166 | -14.52368 | 29633 ft | 474 kts | 28° |
| 2026-05-05 15:57 | 29.30942 | -14.50250 | 29961 ft | 475 kts | 27° |
| 2026-05-05 15:57 | 29.33689 | -14.48152 | 30316 ft | 475 kts | 27° |
| 2026-05-05 15:58 | 29.36410 | -14.46073 | 30632 ft | 476 kts | 27° |
| 2026-05-05 15:58 | 29.39177 | -14.43957 | 31013 ft | 474 kts | 27° |
| 2026-05-05 15:58 | 29.41894 | -14.41879 | 31363 ft | 473 kts | 27° |
| 2026-05-05 15:59 | 29.47461 | -14.37630 | 31585 ft | 484 kts | 27° |
| 2026-05-05 15:59 | 29.50290 | -14.35469 | 31720 ft | 489 kts | 27° |
| 2026-05-05 15:59 | 29.53112 | -14.33308 | 31847 ft | 493 kts | 28° |
| 2026-05-05 15:59 | 29.55980 | -14.31108 | 31978 ft | 497 kts | 27° |
| 2026-05-05 16:00 | 29.58902 | -14.28865 | 32106 ft | 501 kts | 28° |
| 2026-05-05 16:00 | 29.61799 | -14.26638 | 32237 ft | 505 kts | 27° |
| 2026-05-05 16:00 | 29.64755 | -14.24365 | 32365 ft | 508 kts | 27° |
| 2026-05-05 16:00 | 29.67694 | -14.22103 | 32591 ft | 509 kts | 27° |
| 2026-05-05 16:01 | 29.70597 | -14.19862 | 33168 ft | 501 kts | 27° |
| 2026-05-05 16:01 | 29.73482 | -14.17624 | 33780 ft | 492 kts | 27° |
| 2026-05-05 16:01 | 29.76333 | -14.15414 | 34018 ft | 492 kts | 27° |
| 2026-05-05 16:02 | 29.82061 | -14.10996 | 34029 ft | 501 kts | 26° |
| 2026-05-05 16:02 | 29.87909 | -14.06490 | 34031 ft | 510 kts | 27° |
| 2026-05-05 16:03 | 29.93858 | -14.01895 | 34025 ft | 520 kts | 27° |
| 2026-05-05 16:03 | 29.99924 | -13.97196 | 34030 ft | 532 kts | 27° |
| 2026-05-05 16:04 | 30.06136 | -13.92376 | 34028 ft | 545 kts | 27° |
| 2026-05-05 16:04 | 30.12507 | -13.87421 | 34031 ft | 550 kts | 27° |
| 2026-05-05 16:05 | 30.18802 | -13.82499 | 34031 ft | 548 kts | 28° |
| 2026-05-05 16:05 | 30.25117 | -13.77561 | 34030 ft | 549 kts | 28° |
| 2026-05-05 16:06 | 30.31454 | -13.72604 | 34242 ft | 549 kts | 27° |
| 2026-05-05 16:06 | 30.34596 | -13.70142 | 34517 ft | 546 kts | 27° |
| 2026-05-05 16:06 | 30.37708 | -13.67703 | 34753 ft | 544 kts | 28° |
| 2026-05-05 16:06 | 30.40858 | -13.65231 | 34976 ft | 542 kts | 27° |
| 2026-05-05 16:07 | 30.43967 | -13.62793 | 35189 ft | 540 kts | 27° |
| 2026-05-05 16:07 | 30.50177 | -13.57939 | 35412 ft | 540 kts | 26° |
| 2026-05-05 16:07 | 30.53369 | -13.55629 | 35531 ft | 537 kts | 24° |
| 2026-05-05 16:08 | 30.56631 | -13.53463 | 35663 ft | 535 kts | 21° |
| 2026-05-05 16:08 | 30.59884 | -13.51416 | 35850 ft | 531 kts | 20° |
| 2026-05-05 16:08 | 30.63136 | -13.49423 | 36030 ft | 528 kts | 20° |
| 2026-05-05 16:09 | 30.69640 | -13.45474 | 36032 ft | 530 kts | 20° |
| 2026-05-05 16:09 | 30.76155 | -13.41471 | 36034 ft | 531 kts | 20° |
| 2026-05-05 16:10 | 30.82691 | -13.37392 | 36032 ft | 530 kts | 20° |
| 2026-05-05 16:10 | 30.89153 | -13.33321 | 36032 ft | 531 kts | 21° |
| 2026-05-05 16:11 | 30.95667 | -13.29209 | 36033 ft | 531 kts | 21° |
| 2026-05-05 16:12 | 31.08599 | -13.21023 | 36037 ft | 527 kts | 21° |
| 2026-05-05 16:13 | 31.24684 | -13.10807 | 36043 ft | 523 kts | 21° |
| 2026-05-05 16:13 | 31.31083 | -13.06732 | 36045 ft | 522 kts | 22° |
| 2026-05-05 16:14 | 31.43813 | -12.98615 | 36051 ft | 518 kts | 22° |
| 2026-05-05 16:15 | 31.56491 | -12.90496 | 36048 ft | 519 kts | 22° |
| 2026-05-05 16:16 | 31.69028 | -12.82445 | 36057 ft | 511 kts | 23° |
| 2026-05-05 16:17 | 31.78433 | -12.76393 | 36060 ft | 513 kts | 23° |
| 2026-05-05 16:18 | 31.87763 | -12.70365 | 36060 ft | 509 kts | 23° |
| 2026-05-05 16:19 | 31.97076 | -12.64347 | 36055 ft | 506 kts | 24° |
| 2026-05-05 16:19 | 32.06310 | -12.58362 | 36065 ft | 507 kts | 24° |
| 2026-05-05 16:20 | 32.18581 | -12.50383 | 36065 ft | 504 kts | 24° |
| 2026-05-05 16:22 | 32.33904 | -12.40387 | 36055 ft | 497 kts | 24° |
| 2026-05-05 16:22 | 32.39982 | -12.36407 | 36173 ft | 499 kts | 24° |
| 2026-05-05 16:23 | 32.45944 | -12.32492 | 37202 ft | 484 kts | 24° |
| 2026-05-05 16:23 | 32.48878 | -12.30565 | 37644 ft | 479 kts | 24° |
| 2026-05-05 16:23 | 32.54670 | -12.26764 | 38074 ft | 476 kts | 24° |
| 2026-05-05 16:24 | 32.60474 | -12.22958 | 38078 ft | 478 kts | 24° |
| 2026-05-05 16:25 | 32.69173 | -12.17230 | 38082 ft | 474 kts | 24° |
| 2026-05-05 16:25 | 32.77803 | -12.11538 | 38083 ft | 474 kts | 25° |
| 2026-05-05 16:26 | 32.89313 | -12.03914 | 38082 ft | 474 kts | 24° |
| 2026-05-05 16:27 | 32.95113 | -12.00178 | 38076 ft | 471 kts | 21° |
| 2026-05-05 16:27 | 33.01128 | -11.97340 | 38090 ft | 464 kts | 12° |
| 2026-05-05 16:28 | 33.07328 | -11.95211 | 38091 ft | 461 kts | 10° |
| 2026-05-05 16:28 | 33.13525 | -11.93235 | 38087 ft | 461 kts | 10° |
| 2026-05-05 16:29 | 33.19714 | -11.91219 | 38095 ft | 460 kts | 11° |
| 2026-05-05 16:29 | 33.25876 | -11.89163 | 38094 ft | 460 kts | 11° |
| 2026-05-05 16:30 | 33.32031 | -11.87083 | 38085 ft | 460 kts | 11° |
| 2026-05-05 16:30 | 33.38155 | -11.84998 | 38095 ft | 457 kts | 11° |
| 2026-05-05 16:31 | 33.44263 | -11.82896 | 38093 ft | 458 kts | 11° |
| 2026-05-05 16:31 | 33.50397 | -11.80798 | 38087 ft | 457 kts | 11° |
| 2026-05-05 16:32 | 33.56517 | -11.78696 | 38085 ft | 457 kts | 11° |
| 2026-05-05 16:32 | 33.62614 | -11.76582 | 38089 ft | 457 kts | 11° |
| 2026-05-05 16:33 | 33.68710 | -11.74493 | 38091 ft | 455 kts | 11° |
| 2026-05-05 16:33 | 33.74806 | -11.72409 | 38093 ft | 456 kts | 12° |
| 2026-05-05 16:34 | 33.80902 | -11.70298 | 38095 ft | 455 kts | 12° |
| 2026-05-05 16:34 | 33.86975 | -11.68190 | 38082 ft | 455 kts | 12° |
| 2026-05-05 16:35 | 33.93076 | -11.66073 | 38096 ft | 454 kts | 12° |
| 2026-05-05 16:35 | 33.99131 | -11.63953 | 38098 ft | 452 kts | 12° |
| 2026-05-05 16:36 | 34.05172 | -11.61843 | 38094 ft | 452 kts | 12° |
| 2026-05-05 16:36 | 34.11220 | -11.59722 | 38098 ft | 454 kts | 12° |
| 2026-05-05 16:37 | 34.17255 | -11.57615 | 38094 ft | 453 kts | 12° |
| 2026-05-05 16:37 | 34.23314 | -11.55506 | 38097 ft | 452 kts | 12° |
| 2026-05-05 16:38 | 34.29361 | -11.53391 | 38096 ft | 453 kts | 12° |
| 2026-05-05 16:38 | 34.35440 | -11.51276 | 38095 ft | 452 kts | 12° |
| 2026-05-05 16:39 | 34.41481 | -11.49160 | 38108 ft | 453 kts | 12° |
| 2026-05-05 16:39 | 34.47550 | -11.47025 | 38096 ft | 453 kts | 12° |
| 2026-05-05 16:40 | 34.53598 | -11.44904 | 38099 ft | 452 kts | 12° |
| 2026-05-05 16:40 | 34.59652 | -11.42784 | 38100 ft | 452 kts | 12° |
| 2026-05-05 16:41 | 34.65689 | -11.40648 | 38097 ft | 453 kts | 12° |
| 2026-05-05 16:41 | 34.71737 | -11.38503 | 38099 ft | 453 kts | 12° |
| 2026-05-05 16:42 | 34.77323 | -11.36520 | 38098 ft | 452 kts | 12° |
| 2026-05-05 16:42 | 34.83344 | -11.34384 | 38097 ft | 452 kts | 13° |
| 2026-05-05 16:43 | 34.89401 | -11.32232 | 37999 ft | 452 kts | 13° |
| 2026-05-05 16:43 | 34.95470 | -11.30074 | 38400 ft | 457 kts | 12° |
| 2026-05-05 16:44 | 34.98531 | -11.28988 | 38257 ft | 464 kts | 12° |
| 2026-05-05 16:44 | 35.01671 | -11.27873 | 38101 ft | 471 kts | 12° |
| 2026-05-05 16:44 | 35.08001 | -11.25618 | 38043 ft | 475 kts | 12° |
| 2026-05-05 16:45 | 35.14347 | -11.23349 | 38021 ft | 476 kts | 12° |
| 2026-05-05 16:45 | 35.20720 | -11.21064 | 38021 ft | 475 kts | 12° |
| 2026-05-05 16:46 | 35.27061 | -11.18787 | 38039 ft | 476 kts | 12° |
| 2026-05-05 16:46 | 35.33415 | -11.16503 | 38043 ft | 475 kts | 12° |
| 2026-05-05 16:47 | 35.39721 | -11.14233 | 38041 ft | 474 kts | 12° |
| 2026-05-05 16:47 | 35.46081 | -11.11941 | 38040 ft | 475 kts | 12° |
| 2026-05-05 16:48 | 35.52396 | -11.09663 | 38039 ft | 475 kts | 12° |
| 2026-05-05 16:48 | 35.58762 | -11.07362 | 38038 ft | 474 kts | 12° |
| 2026-05-05 16:49 | 35.65094 | -11.05069 | 38037 ft | 474 kts | 12° |
| 2026-05-05 16:49 | 35.71380 | -11.02789 | 38036 ft | 474 kts | 12° |
| 2026-05-05 16:50 | 35.77751 | -11.00474 | 38035 ft | 474 kts | 12° |
| 2026-05-05 16:50 | 35.84064 | -10.98177 | 38034 ft | 474 kts | 12° |
| 2026-05-05 16:51 | 35.90365 | -10.95880 | 38033 ft | 474 kts | 12° |
| 2026-05-05 16:51 | 35.96702 | -10.93568 | 38032 ft | 474 kts | 12° |
| 2026-05-05 16:52 | 36.03054 | -10.91363 | 38031 ft | 473 kts | 11° |
| 2026-05-05 16:52 | 36.09450 | -10.89263 | 38030 ft | 473 kts | 11° |
| 2026-05-05 16:53 | 36.15798 | -10.87189 | 38054 ft | 472 kts | 10° |
| 2026-05-05 16:53 | 36.22111 | -10.85112 | 38082 ft | 472 kts | 10° |
| 2026-05-05 16:54 | 36.28458 | -10.83008 | 38087 ft | 472 kts | 10° |
| 2026-05-05 16:54 | 36.34846 | -10.80880 | 38087 ft | 472 kts | 11° |
| 2026-05-05 16:55 | 36.41177 | -10.78765 | 38087 ft | 472 kts | 10° |
| 2026-05-05 16:55 | 36.47515 | -10.76642 | 38087 ft | 473 kts | 10° |
| 2026-05-05 16:56 | 36.53842 | -10.74517 | 38088 ft | 473 kts | 10° |
| 2026-05-05 16:56 | 36.60203 | -10.72378 | 38089 ft | 473 kts | 10° |
| 2026-05-05 16:57 | 36.66538 | -10.70244 | 38089 ft | 473 kts | 10° |
| 2026-05-05 16:57 | 36.72915 | -10.68092 | 38090 ft | 472 kts | 10° |
| 2026-05-05 16:58 | 36.79246 | -10.65954 | 38090 ft | 473 kts | 10° |
| 2026-05-05 16:58 | 36.85625 | -10.63795 | 38091 ft | 473 kts | 10° |
| 2026-05-05 16:59 | 36.91948 | -10.61650 | 38090 ft | 473 kts | 10° |
| 2026-05-05 16:59 | 36.98314 | -10.59487 | 38088 ft | 472 kts | 10° |
| 2026-05-05 17:00 | 37.04634 | -10.57338 | 38088 ft | 472 kts | 10° |
| 2026-05-05 17:00 | 37.10971 | -10.55178 | 38088 ft | 473 kts | 10° |
| 2026-05-05 17:01 | 37.17067 | -10.53097 | 38078 ft | 473 kts | 10° |
| 2026-05-05 17:01 | 37.23436 | -10.50919 | 38063 ft | 473 kts | 9° |
| 2026-05-05 17:02 | 37.29775 | -10.48747 | 38059 ft | 472 kts | 9° |
| 2026-05-05 17:02 | 37.36123 | -10.46567 | 38060 ft | 472 kts | 9° |
| 2026-05-05 17:03 | 37.42475 | -10.44384 | 38062 ft | 472 kts | 9° |
| 2026-05-05 17:03 | 37.48803 | -10.42203 | 38063 ft | 472 kts | 9° |
| 2026-05-05 17:04 | 37.55152 | -10.40011 | 38066 ft | 472 kts | 9° |
| 2026-05-05 17:04 | 37.61505 | -10.37812 | 38066 ft | 472 kts | 9° |
| 2026-05-05 17:05 | 37.67859 | -10.35612 | 38068 ft | 473 kts | 9° |
| 2026-05-05 17:05 | 37.74240 | -10.33399 | 38071 ft | 473 kts | 9° |
| 2026-05-05 17:06 | 37.80565 | -10.31205 | 38072 ft | 474 kts | 9° |
| 2026-05-05 17:06 | 37.86941 | -10.28986 | 38074 ft | 474 kts | 9° |
| 2026-05-05 17:07 | 37.93256 | -10.26786 | 38076 ft | 473 kts | 9° |
| 2026-05-05 17:07 | 37.99621 | -10.24561 | 38078 ft | 473 kts | 9° |
| 2026-05-05 17:08 | 38.05960 | -10.22343 | 38081 ft | 473 kts | 9° |
| 2026-05-05 17:08 | 38.12288 | -10.20124 | 38082 ft | 473 kts | 9° |
| 2026-05-05 17:09 | 38.18657 | -10.17885 | 38085 ft | 473 kts | 9° |
| 2026-05-05 17:09 | 38.25025 | -10.15645 | 38091 ft | 473 kts | 9° |
| 2026-05-05 17:10 | 38.31385 | -10.13402 | 38093 ft | 473 kts | 9° |
| 2026-05-05 17:10 | 38.37716 | -10.11166 | 38094 ft | 473 kts | 9° |
| 2026-05-05 17:11 | 38.44023 | -10.08890 | 38093 ft | 473 kts | 11° |
| 2026-05-05 17:11 | 38.50304 | -10.06379 | 38094 ft | 474 kts | 12° |
| 2026-05-05 17:12 | 38.56550 | -10.03768 | 38094 ft | 474 kts | 12° |
| 2026-05-05 17:12 | 38.62862 | -10.01109 | 38094 ft | 474 kts | 12° |
| 2026-05-05 17:13 | 38.69102 | -9.98485 | 38094 ft | 474 kts | 12° |
| 2026-05-05 17:13 | 38.75357 | -9.95857 | 38094 ft | 473 kts | 12° |
| 2026-05-05 17:14 | 38.81613 | -9.93233 | 38093 ft | 473 kts | 12° |
| 2026-05-05 17:14 | 38.87842 | -9.90617 | 38094 ft | 473 kts | 12° |
| 2026-05-05 17:15 | 38.94094 | -9.87985 | 38092 ft | 472 kts | 12° |
| 2026-05-05 17:15 | 39.00313 | -9.85363 | 38088 ft | 471 kts | 12° |
| 2026-05-05 17:16 | 39.06548 | -9.82729 | 38089 ft | 470 kts | 12° |
| 2026-05-05 17:16 | 39.12736 | -9.80110 | 38091 ft | 470 kts | 12° |
| 2026-05-05 17:17 | 39.18933 | -9.77485 | 38091 ft | 470 kts | 12° |
| 2026-05-05 17:17 | 39.25140 | -9.74851 | 38091 ft | 469 kts | 12° |
| 2026-05-05 17:18 | 39.31374 | -9.72199 | 38090 ft | 469 kts | 12° |
| 2026-05-05 17:18 | 39.37552 | -9.69567 | 38089 ft | 468 kts | 12° |
| 2026-05-05 17:19 | 39.43718 | -9.66934 | 38088 ft | 468 kts | 12° |
| 2026-05-05 17:19 | 39.49937 | -9.64276 | 38085 ft | 471 kts | 12° |
| 2026-05-05 17:20 | 39.56168 | -9.61609 | 38084 ft | 473 kts | 12° |
| 2026-05-05 17:20 | 39.62374 | -9.58945 | 38082 ft | 473 kts | 12° |
| 2026-05-05 17:21 | 39.68648 | -9.56242 | 38082 ft | 472 kts | 13° |
| 2026-05-05 17:22 | 39.78005 | -9.52206 | 38080 ft | 472 kts | 13° |
| 2026-05-05 17:22 | 39.84200 | -9.49530 | 38080 ft | 472 kts | 13° |
| 2026-05-05 17:23 | 39.90435 | -9.46829 | 38079 ft | 472 kts | 13° |
| 2026-05-05 17:23 | 39.96661 | -9.44126 | 38076 ft | 472 kts | 13° |
| 2026-05-05 17:24 | 40.02874 | -9.41425 | 38074 ft | 472 kts | 13° |
| 2026-05-05 17:24 | 40.09081 | -9.38723 | 38074 ft | 472 kts | 13° |
| 2026-05-05 17:25 | 40.15149 | -9.36075 | 38062 ft | 471 kts | 13° |
| 2026-05-05 17:25 | 40.21315 | -9.33379 | 38061 ft | 470 kts | 13° |
| 2026-05-05 17:26 | 40.27518 | -9.30661 | 38071 ft | 469 kts | 13° |
| 2026-05-05 17:26 | 40.33718 | -9.27941 | 38074 ft | 470 kts | 13° |
| 2026-05-05 17:27 | 40.39903 | -9.25221 | 38074 ft | 469 kts | 13° |
| 2026-05-05 17:27 | 40.46045 | -9.22513 | 38073 ft | 469 kts | 13° |
| 2026-05-05 17:28 | 40.52232 | -9.19781 | 38073 ft | 469 kts | 13° |
| 2026-05-05 17:28 | 40.58407 | -9.17051 | 38073 ft | 468 kts | 13° |
| 2026-05-05 17:29 | 40.64537 | -9.14335 | 38073 ft | 468 kts | 13° |
| 2026-05-05 17:29 | 40.70694 | -9.11602 | 38072 ft | 468 kts | 13° |
| 2026-05-05 17:30 | 40.76885 | -9.08847 | 38072 ft | 467 kts | 13° |
| 2026-05-05 17:30 | 40.83025 | -9.06111 | 38072 ft | 467 kts | 13° |
| 2026-05-05 17:31 | 40.89152 | -9.03374 | 38071 ft | 467 kts | 13° |
| 2026-05-05 17:31 | 40.95312 | -9.00617 | 38071 ft | 467 kts | 13° |
| 2026-05-05 17:32 | 41.01451 | -8.97863 | 38070 ft | 466 kts | 13° |
| 2026-05-05 17:32 | 41.07572 | -8.95114 | 38070 ft | 466 kts | 13° |
| 2026-05-05 17:33 | 41.13711 | -8.92351 | 38069 ft | 465 kts | 13° |
| 2026-05-05 17:33 | 41.19795 | -8.89607 | 38068 ft | 465 kts | 13° |
| 2026-05-05 17:34 | 41.25937 | -8.86830 | 38066 ft | 465 kts | 13° |
| 2026-05-05 17:34 | 41.32034 | -8.84067 | 38066 ft | 464 kts | 13° |
| 2026-05-05 17:35 | 41.38128 | -8.81302 | 38066 ft | 464 kts | 14° |
| 2026-05-05 17:35 | 41.44230 | -8.78531 | 38067 ft | 465 kts | 14° |
| 2026-05-05 17:36 | 41.50357 | -8.75739 | 38068 ft | 465 kts | 14° |
| 2026-05-05 17:36 | 41.56476 | -8.72948 | 38065 ft | 465 kts | 14° |
| 2026-05-05 17:37 | 41.62600 | -8.70150 | 38069 ft | 464 kts | 14° |
| 2026-05-05 17:37 | 41.68660 | -8.67373 | 38073 ft | 464 kts | 14° |
| 2026-05-05 17:38 | 41.74815 | -8.64541 | 38079 ft | 464 kts | 14° |
| 2026-05-05 17:38 | 41.80897 | -8.61701 | 38077 ft | 465 kts | 16° |
| 2026-05-05 17:39 | 41.86809 | -8.58066 | 38074 ft | 471 kts | 25° |
| 2026-05-05 17:39 | 41.92327 | -8.53376 | 38069 ft | 475 kts | 30° |
| 2026-05-05 17:40 | 41.97774 | -8.48256 | 38066 ft | 475 kts | 31° |
| 2026-05-05 17:40 | 42.03137 | -8.43145 | 38069 ft | 475 kts | 31° |
| 2026-05-05 17:41 | 42.08512 | -8.38041 | 38071 ft | 474 kts | 31° |
| 2026-05-05 17:41 | 42.13932 | -8.32916 | 38076 ft | 473 kts | 31° |
| 2026-05-05 17:42 | 42.19303 | -8.27854 | 38089 ft | 473 kts | 31° |
| 2026-05-05 17:42 | 42.24701 | -8.22766 | 38094 ft | 474 kts | 31° |
| 2026-05-05 17:43 | 42.30115 | -8.17654 | 38089 ft | 474 kts | 31° |
| 2026-05-05 17:43 | 42.35512 | -8.12546 | 38088 ft | 474 kts | 31° |
| 2026-05-05 17:44 | 42.40888 | -8.07449 | 38087 ft | 474 kts | 31° |
| 2026-05-05 17:44 | 42.46254 | -8.02351 | 38083 ft | 473 kts | 31° |
| 2026-05-05 17:45 | 42.51628 | -7.97232 | 38081 ft | 473 kts | 31° |
| 2026-05-05 17:45 | 42.57034 | -7.92072 | 38081 ft | 473 kts | 31° |
| 2026-05-05 17:46 | 42.62400 | -7.86941 | 38071 ft | 473 kts | 31° |
| 2026-05-05 17:46 | 42.67777 | -7.81789 | 38071 ft | 474 kts | 31° |
| 2026-05-05 17:47 | 42.73144 | -7.76634 | 38077 ft | 475 kts | 31° |
| 2026-05-05 17:47 | 42.78532 | -7.71448 | 38076 ft | 475 kts | 31° |
| 2026-05-05 17:48 | 42.83924 | -7.66246 | 38075 ft | 475 kts | 32° |
| 2026-05-05 17:48 | 42.89312 | -7.61039 | 38074 ft | 474 kts | 32° |
| 2026-05-05 17:49 | 42.94656 | -7.55861 | 38072 ft | 474 kts | 32° |
| 2026-05-05 17:49 | 43.00019 | -7.50652 | 38070 ft | 474 kts | 32° |
| 2026-05-05 17:50 | 43.05410 | -7.45406 | 38070 ft | 474 kts | 32° |
| 2026-05-05 17:50 | 43.10736 | -7.40212 | 38060 ft | 474 kts | 32° |
| 2026-05-05 17:51 | 43.16099 | -7.34972 | 38021 ft | 474 kts | 33° |
| 2026-05-05 17:51 | 43.21473 | -7.29708 | 37977 ft | 474 kts | 33° |
| 2026-05-05 17:52 | 43.26826 | -7.24452 | 37937 ft | 473 kts | 33° |
| 2026-05-05 17:52 | 43.32137 | -7.19225 | 38053 ft | 471 kts | 33° |
| 2026-05-05 17:53 | 43.37496 | -7.13940 | 38065 ft | 474 kts | 33° |
| 2026-05-05 17:53 | 43.42810 | -7.08690 | 38059 ft | 474 kts | 33° |
| 2026-05-05 17:54 | 43.48172 | -7.03381 | 38054 ft | 474 kts | 33° |
| 2026-05-05 17:54 | 43.53509 | -6.98083 | 38052 ft | 474 kts | 33° |
| 2026-05-05 17:55 | 43.58844 | -6.92774 | 38050 ft | 474 kts | 33° |
| 2026-05-05 17:55 | 43.64193 | -6.87440 | 38051 ft | 474 kts | 33° |
| 2026-05-05 17:56 | 43.69535 | -6.82101 | 38051 ft | 475 kts | 33° |
| 2026-05-05 17:56 | 43.74867 | -6.76758 | 38051 ft | 475 kts | 33° |
| 2026-05-05 17:57 | 43.80204 | -6.71401 | 38049 ft | 475 kts | 33° |
| 2026-05-05 17:57 | 43.85553 | -6.66023 | 38049 ft | 475 kts | 33° |
| 2026-05-05 17:58 | 43.90921 | -6.60614 | 38048 ft | 476 kts | 33° |
| 2026-05-05 17:58 | 43.96259 | -6.55218 | 38047 ft | 476 kts | 33° |
| 2026-05-05 17:59 | 44.01585 | -6.49824 | 38048 ft | 476 kts | 33° |
| 2026-05-05 17:59 | 44.06897 | -6.44432 | 38048 ft | 477 kts | 34° |
| 2026-05-05 18:00 | 44.12252 | -6.38983 | 38047 ft | 477 kts | 34° |
| 2026-05-05 18:00 | 44.17599 | -6.33531 | 38047 ft | 476 kts | 34° |
| 2026-05-05 18:01 | 44.22898 | -6.28114 | 38050 ft | 476 kts | 34° |
| 2026-05-05 18:01 | 44.28235 | -6.22645 | 38050 ft | 476 kts | 34° |
| 2026-05-05 18:02 | 44.33557 | -6.17180 | 38050 ft | 477 kts | 34° |
| 2026-05-05 18:02 | 44.38879 | -6.11704 | 38050 ft | 477 kts | 34° |
| 2026-05-05 18:03 | 44.44230 | -6.06183 | 38051 ft | 477 kts | 34° |
| 2026-05-05 18:03 | 44.49548 | -6.00685 | 38050 ft | 477 kts | 34° |
| 2026-05-05 18:04 | 44.54864 | -5.95177 | 38065 ft | 477 kts | 34° |
| 2026-05-05 18:04 | 44.60163 | -5.89667 | 38061 ft | 475 kts | 34° |
| 2026-05-05 18:05 | 44.65414 | -5.84180 | 38041 ft | 474 kts | 36° |
| 2026-05-05 18:05 | 44.70368 | -5.78076 | 38040 ft | 476 kts | 42° |
| 2026-05-05 18:06 | 44.75072 | -5.71549 | 38039 ft | 476 kts | 43° |
| 2026-05-05 18:06 | 44.79740 | -5.64960 | 38038 ft | 475 kts | 43° |
| 2026-05-05 18:07 | 44.84405 | -5.58419 | 38037 ft | 475 kts | 43° |
| 2026-05-05 18:07 | 44.89058 | -5.51939 | 38036 ft | 474 kts | 43° |
| 2026-05-05 18:08 | 44.93785 | -5.45378 | 38035 ft | 474 kts | 43° |
| 2026-05-05 18:08 | 44.98458 | -5.38893 | 38034 ft | 474 kts | 43° |
| 2026-05-05 18:09 | 45.03159 | -5.32363 | 38033 ft | 474 kts | 43° |
| 2026-05-05 18:09 | 45.07861 | -5.25813 | 38031 ft | 474 kts | 43° |
| 2026-05-05 18:10 | 45.12526 | -5.19301 | 38030 ft | 473 kts | 44° |
| 2026-05-05 18:10 | 45.17198 | -5.12762 | 38029 ft | 473 kts | 44° |
| 2026-05-05 18:11 | 45.21880 | -5.06192 | 38028 ft | 473 kts | 44° |
| 2026-05-05 18:11 | 45.26541 | -4.99637 | 38027 ft | 473 kts | 44° |
| 2026-05-05 18:12 | 45.31200 | -4.93069 | 38025 ft | 474 kts | 44° |
| 2026-05-05 18:12 | 45.35881 | -4.86450 | 38024 ft | 473 kts | 44° |
| 2026-05-05 18:13 | 45.40511 | -4.79890 | 38022 ft | 473 kts | 44° |
| 2026-05-05 18:13 | 45.45162 | -4.73285 | 38021 ft | 474 kts | 44° |
| 2026-05-05 18:14 | 45.49819 | -4.66653 | 38019 ft | 474 kts | 44° |
| 2026-05-05 18:14 | 45.54475 | -4.60009 | 38018 ft | 473 kts | 44° |
| 2026-05-05 18:15 | 45.59114 | -4.53374 | 38017 ft | 473 kts | 44° |
| 2026-05-05 18:15 | 45.63735 | -4.46746 | 38015 ft | 474 kts | 44° |
| 2026-05-05 18:16 | 45.68382 | -4.40065 | 38014 ft | 474 kts | 44° |
| 2026-05-05 18:16 | 45.72776 | -4.33730 | 38013 ft | 474 kts | 45° |
| 2026-05-05 18:17 | 45.77448 | -4.26977 | 38011 ft | 474 kts | 45° |
| 2026-05-05 18:17 | 45.82089 | -4.20248 | 38007 ft | 474 kts | 45° |
| 2026-05-05 18:18 | 45.86709 | -4.13538 | 38005 ft | 474 kts | 45° |
| 2026-05-05 18:18 | 45.91332 | -4.06808 | 38003 ft | 473 kts | 45° |
| 2026-05-05 18:19 | 45.95910 | -4.00129 | 38000 ft | 473 kts | 45° |
| 2026-05-05 18:19 | 46.00515 | -3.93391 | 37995 ft | 473 kts | 45° |
| 2026-05-05 18:20 | 46.05112 | -3.86649 | 37991 ft | 473 kts | 45° |
| 2026-05-05 18:20 | 46.09714 | -3.79881 | 37990 ft | 473 kts | 45° |
| 2026-05-05 18:21 | 46.14304 | -3.73117 | 37990 ft | 472 kts | 45° |
| 2026-05-05 18:21 | 46.16569 | -3.69771 | 38216 ft | 467 kts | 45° |
| 2026-05-05 18:21 | 46.18805 | -3.66462 | 38679 ft | 457 kts | 45° |
| 2026-05-05 18:21 | 46.20992 | -3.63221 | 39066 ft | 452 kts | 45° |
| 2026-05-05 18:22 | 46.23194 | -3.59956 | 39174 ft | 453 kts | 45° |
| 2026-05-05 18:22 | 46.25384 | -3.56705 | 39285 ft | 453 kts | 45° |
| 2026-05-05 18:22 | 46.27576 | -3.53448 | 39388 ft | 454 kts | 45° |
| 2026-05-05 18:22 | 46.29788 | -3.50157 | 39503 ft | 455 kts | 45° |
| 2026-05-05 18:23 | 46.31971 | -3.46904 | 39648 ft | 454 kts | 45° |
| 2026-05-05 18:23 | 46.34153 | -3.43650 | 39779 ft | 454 kts | 45° |
| 2026-05-05 18:23 | 46.36350 | -3.40370 | 39912 ft | 454 kts | 45° |
| 2026-05-05 18:24 | 46.40770 | -3.33756 | 39957 ft | 455 kts | 46° |
| 2026-05-05 18:24 | 46.45103 | -3.27257 | 39949 ft | 454 kts | 46° |
| 2026-05-05 18:25 | 46.49461 | -3.20704 | 39942 ft | 455 kts | 46° |
| 2026-05-05 18:25 | 46.53865 | -3.14059 | 39941 ft | 455 kts | 47° |
| 2026-05-05 18:26 | 46.57844 | -3.06977 | 39940 ft | 455 kts | 55° |
| 2026-05-05 18:26 | 46.61207 | -2.99228 | 39937 ft | 455 kts | 59° |
| 2026-05-05 18:27 | 46.64372 | -2.91263 | 39934 ft | 455 kts | 60° |
| 2026-05-05 18:27 | 46.67481 | -2.83328 | 39933 ft | 455 kts | 60° |
| 2026-05-05 18:28 | 46.72183 | -2.71391 | 39931 ft | 455 kts | 60° |
| 2026-05-05 18:28 | 46.75346 | -2.63388 | 39929 ft | 455 kts | 60° |
| 2026-05-05 18:29 | 46.76910 | -2.59432 | 39749 ft | 452 kts | 60° |
| 2026-05-05 18:29 | 46.78476 | -2.55468 | 39497 ft | 444 kts | 60° |
| 2026-05-05 18:29 | 46.79981 | -2.51657 | 39254 ft | 436 kts | 60° |
| 2026-05-05 18:29 | 46.81493 | -2.47823 | 39008 ft | 432 kts | 60° |
| 2026-05-05 18:30 | 46.82999 | -2.43999 | 38682 ft | 432 kts | 60° |
| 2026-05-05 18:30 | 46.84505 | -2.40264 | 38132 ft | 435 kts | 58° |
| 2026-05-05 18:30 | 46.86155 | -2.36567 | 37524 ft | 439 kts | 53° |
| 2026-05-05 18:30 | 46.87941 | -2.33269 | 36943 ft | 443 kts | 49° |
| 2026-05-05 18:31 | 46.90096 | -2.29797 | 36362 ft | 445 kts | 47° |
| 2026-05-05 18:31 | 46.92262 | -2.26550 | 35750 ft | 449 kts | 45° |
| 2026-05-05 18:31 | 46.94484 | -2.23325 | 35138 ft | 453 kts | 45° |
| 2026-05-05 18:31 | 46.96695 | -2.20147 | 35092 ft | 441 kts | 45° |
| 2026-05-05 18:32 | 46.98896 | -2.16976 | 35240 ft | 441 kts | 45° |
| 2026-05-05 18:32 | 47.01031 | -2.13875 | 35823 ft | 431 kts | 45° |
| 2026-05-05 18:32 | 47.03098 | -2.10850 | 36527 ft | 417 kts | 46° |
| 2026-05-05 18:32 | 47.05114 | -2.07882 | 37108 ft | 405 kts | 46° |
| 2026-05-05 18:33 | 47.07068 | -2.04989 | 37345 ft | 401 kts | 46° |
| 2026-05-05 18:33 | 47.09046 | -2.02045 | 37365 ft | 405 kts | 46° |
| 2026-05-05 18:33 | 47.12871 | -1.96320 | 37500 ft | 409 kts | 46° |
| 2026-05-05 18:34 | 47.14872 | -1.93314 | 37616 ft | 410 kts | 46° |
| 2026-05-05 18:34 | 47.16837 | -1.90360 | 37722 ft | 411 kts | 46° |
| 2026-05-05 18:34 | 47.18830 | -1.87363 | 37830 ft | 412 kts | 46° |
| 2026-05-05 18:34 | 47.20826 | -1.84356 | 37935 ft | 412 kts | 46° |
| 2026-05-05 18:35 | 47.22825 | -1.81340 | 38056 ft | 413 kts | 46° |
| 2026-05-05 18:35 | 47.24836 | -1.78303 | 38073 ft | 417 kts | 46° |
| 2026-05-05 18:35 | 47.28908 | -1.72143 | 38126 ft | 423 kts | 46° |
| 2026-05-05 18:36 | 47.33009 | -1.65925 | 38264 ft | 427 kts | 46° |
| 2026-05-05 18:36 | 47.37146 | -1.59639 | 38422 ft | 425 kts | 46° |
| 2026-05-05 18:37 | 47.39182 | -1.56540 | 38676 ft | 421 kts | 46° |
| 2026-05-05 18:37 | 47.41215 | -1.53440 | 38780 ft | 421 kts | 46° |
| 2026-05-05 18:37 | 47.43248 | -1.50336 | 38882 ft | 422 kts | 46° |
| 2026-05-05 18:37 | 47.45282 | -1.47227 | 38975 ft | 423 kts | 46° |
| 2026-05-05 18:38 | 47.49380 | -1.40951 | 39109 ft | 426 kts | 46° |
| 2026-05-05 18:38 | 47.53500 | -1.34628 | 39245 ft | 429 kts | 47° |
| 2026-05-05 18:39 | 47.57639 | -1.28259 | 39365 ft | 432 kts | 47° |
| 2026-05-05 18:39 | 47.61803 | -1.21842 | 39464 ft | 436 kts | 47° |
| 2026-05-05 18:40 | 47.65998 | -1.15358 | 39562 ft | 439 kts | 47° |
| 2026-05-05 18:40 | 47.70247 | -1.08771 | 39659 ft | 443 kts | 47° |
| 2026-05-05 18:41 | 47.74556 | -1.02246 | 39773 ft | 446 kts | 43° |
| 2026-05-05 18:41 | 47.76833 | -0.99159 | 39884 ft | 445 kts | 42° |
| 2026-05-05 18:41 | 47.79170 | -0.96123 | 39893 ft | 448 kts | 41° |
| 2026-05-05 18:42 | 47.83901 | -0.90070 | 39892 ft | 454 kts | 41° |
| 2026-05-05 18:42 | 47.88693 | -0.83877 | 39891 ft | 460 kts | 41° |
| 2026-05-05 18:43 | 47.93486 | -0.77596 | 39890 ft | 465 kts | 41° |
| 2026-05-05 18:43 | 47.98360 | -0.71147 | 39889 ft | 469 kts | 41° |
| 2026-05-05 18:44 | 48.03208 | -0.64694 | 39887 ft | 471 kts | 41° |
| 2026-05-05 18:44 | 48.08104 | -0.58152 | 39895 ft | 469 kts | 41° |
| 2026-05-05 18:45 | 48.12969 | -0.51631 | 39900 ft | 468 kts | 42° |
| 2026-05-05 18:45 | 48.17789 | -0.45153 | 39892 ft | 467 kts | 42° |
| 2026-05-05 18:46 | 48.22620 | -0.38644 | 39888 ft | 467 kts | 42° |
| 2026-05-05 18:46 | 48.27221 | -0.32430 | 39888 ft | 467 kts | 43° |
| 2026-05-05 18:47 | 48.32202 | -0.25684 | 39887 ft | 467 kts | 43° |
| 2026-05-05 18:47 | 48.37015 | -0.19148 | 39887 ft | 467 kts | 43° |
| 2026-05-05 18:48 | 48.41845 | -0.12572 | 39888 ft | 467 kts | 43° |
| 2026-05-05 18:48 | 48.46632 | -0.06037 | 39890 ft | 467 kts | 43° |
| 2026-05-05 18:49 | 48.51415 | 0.00511 | 39890 ft | 467 kts | 43° |
| 2026-05-05 18:49 | 48.56234 | 0.07124 | 39887 ft | 467 kts | 43° |
| 2026-05-05 18:50 | 48.61043 | 0.13742 | 39885 ft | 469 kts | 43° |
| 2026-05-05 18:50 | 48.65884 | 0.20422 | 39891 ft | 473 kts | 43° |
| 2026-05-05 18:51 | 48.70727 | 0.27124 | 39888 ft | 475 kts | 43° |
| 2026-05-05 18:51 | 48.75588 | 0.33867 | 39882 ft | 474 kts | 43° |
| 2026-05-05 18:52 | 48.80445 | 0.40625 | 39880 ft | 473 kts | 43° |
| 2026-05-05 18:52 | 48.85283 | 0.47374 | 39879 ft | 473 kts | 43° |
| 2026-05-05 18:53 | 48.90106 | 0.54120 | 39878 ft | 473 kts | 43° |
| 2026-05-05 18:53 | 48.94916 | 0.60867 | 39877 ft | 473 kts | 43° |
| 2026-05-05 18:54 | 48.99668 | 0.67550 | 39875 ft | 472 kts | 44° |
| 2026-05-05 18:54 | 49.04166 | 0.73894 | 39874 ft | 472 kts | 44° |
| 2026-05-05 18:55 | 49.09049 | 0.80797 | 39871 ft | 472 kts | 44° |
| 2026-05-05 18:55 | 49.13853 | 0.87610 | 39868 ft | 472 kts | 44° |
| 2026-05-05 18:56 | 49.18644 | 0.94422 | 39867 ft | 472 kts | 44° |
| 2026-05-05 18:56 | 49.23438 | 1.01256 | 39866 ft | 472 kts | 44° |
| 2026-05-05 18:57 | 49.28203 | 1.08070 | 39866 ft | 472 kts | 44° |
| 2026-05-05 18:57 | 49.32986 | 1.14926 | 39865 ft | 472 kts | 44° |
| 2026-05-05 18:58 | 49.37770 | 1.21805 | 39864 ft | 472 kts | 44° |
| 2026-05-05 18:58 | 49.42545 | 1.28690 | 39863 ft | 473 kts | 44° |
| 2026-05-05 18:59 | 49.47341 | 1.35623 | 39862 ft | 472 kts | 44° |
| 2026-05-05 18:59 | 49.52097 | 1.42518 | 39862 ft | 472 kts | 44° |
| 2026-05-05 19:00 | 49.56855 | 1.49436 | 39863 ft | 472 kts | 44° |
| 2026-05-05 19:00 | 49.61634 | 1.56403 | 39865 ft | 472 kts | 44° |
| 2026-05-05 19:01 | 49.66353 | 1.63303 | 39866 ft | 472 kts | 44° |
| 2026-05-05 19:01 | 49.71111 | 1.70280 | 39867 ft | 471 kts | 44° |
| 2026-05-05 19:02 | 49.75842 | 1.77236 | 39866 ft | 471 kts | 45° |
| 2026-05-05 19:02 | 49.80587 | 1.84232 | 39864 ft | 472 kts | 45° |
| 2026-05-05 19:03 | 49.85295 | 1.91194 | 39864 ft | 472 kts | 45° |
| 2026-05-05 19:03 | 49.90049 | 1.98243 | 39864 ft | 471 kts | 45° |
| 2026-05-05 19:04 | 49.94759 | 2.05249 | 39864 ft | 471 kts | 45° |
| 2026-05-05 19:04 | 49.99432 | 2.12217 | 39864 ft | 470 kts | 45° |
| 2026-05-05 19:05 | 50.04148 | 2.19270 | 39863 ft | 471 kts | 45° |
| 2026-05-05 19:05 | 50.08844 | 2.26314 | 39864 ft | 471 kts | 45° |
| 2026-05-05 19:06 | 50.13535 | 2.33371 | 39864 ft | 471 kts | 45° |
| 2026-05-05 19:06 | 50.18226 | 2.40447 | 39864 ft | 471 kts | 45° |
| 2026-05-05 19:07 | 50.22918 | 2.47546 | 39865 ft | 471 kts | 45° |
| 2026-05-05 19:07 | 50.27616 | 2.54675 | 39865 ft | 471 kts | 45° |
| 2026-05-05 19:08 | 50.32293 | 2.61789 | 39457 ft | 472 kts | 45° |
| 2026-05-05 19:08 | 50.34634 | 2.65357 | 39025 ft | 468 kts | 45° |
| 2026-05-05 19:08 | 50.36935 | 2.68872 | 38558 ft | 468 kts | 45° |
| 2026-05-05 19:09 | 50.39183 | 2.72309 | 38110 ft | 467 kts | 45° |
| 2026-05-05 19:09 | 50.41398 | 2.75703 | 37662 ft | 467 kts | 46° |
| 2026-05-05 19:09 | 50.43726 | 2.79273 | 37184 ft | 467 kts | 46° |
| 2026-05-05 19:09 | 50.46008 | 2.82777 | 36713 ft | 466 kts | 46° |
| 2026-05-05 19:10 | 50.48336 | 2.86357 | 36238 ft | 466 kts | 46° |
| 2026-05-05 19:10 | 50.50623 | 2.89879 | 35764 ft | 465 kts | 46° |
| 2026-05-05 19:10 | 50.52898 | 2.93385 | 35250 ft | 455 kts | 46° |
| 2026-05-05 19:10 | 50.55154 | 2.96864 | 34774 ft | 450 kts | 46° |
| 2026-05-05 19:11 | 50.57371 | 3.00286 | 34210 ft | 451 kts | 47° |
| 2026-05-05 19:11 | 50.59611 | 3.03754 | 33642 ft | 450 kts | 47° |
| 2026-05-05 19:11 | 50.61808 | 3.07164 | 33079 ft | 450 kts | 47° |
| 2026-05-05 19:11 | 50.64005 | 3.10581 | 32427 ft | 450 kts | 47° |
| 2026-05-05 19:12 | 50.66253 | 3.14081 | 31563 ft | 452 kts | 47° |
| 2026-05-05 19:12 | 50.68491 | 3.17501 | 30745 ft | 453 kts | 46° |
| 2026-05-05 19:12 | 50.70857 | 3.20782 | 30022 ft | 452 kts | 40° |
| 2026-05-05 19:12 | 50.73402 | 3.23594 | 29743 ft | 443 kts | 34° |
| 2026-05-05 19:13 | 50.78840 | 3.28412 | 29506 ft | 458 kts | 29° |
| 2026-05-05 19:13 | 50.81700 | 3.30752 | 29029 ft | 468 kts | 28° |
| 2026-05-05 19:13 | 50.84546 | 3.33050 | 28608 ft | 462 kts | 28° |
| 2026-05-05 19:14 | 50.87436 | 3.35383 | 28307 ft | 457 kts | 28° |
| 2026-05-05 19:14 | 50.90266 | 3.37685 | 28012 ft | 459 kts | 28° |
| 2026-05-05 19:14 | 50.93098 | 3.40010 | 27715 ft | 461 kts | 29° |
| 2026-05-05 19:14 | 50.95901 | 3.42329 | 27383 ft | 456 kts | 29° |
| 2026-05-05 19:15 | 50.98736 | 3.44690 | 26980 ft | 454 kts | 29° |
| 2026-05-05 19:15 | 51.01510 | 3.47012 | 26587 ft | 456 kts | 29° |
| 2026-05-05 19:15 | 51.04295 | 3.49355 | 26195 ft | 458 kts | 29° |
| 2026-05-05 19:15 | 51.07109 | 3.51728 | 25800 ft | 459 kts | 29° |
| 2026-05-05 19:16 | 51.09952 | 3.54130 | 25401 ft | 460 kts | 28° |
| 2026-05-05 19:16 | 51.12807 | 3.56548 | 25001 ft | 460 kts | 28° |
| 2026-05-05 19:16 | 51.14393 | 3.57893 | 24778 ft | 458 kts | 28° |
| 2026-05-05 19:16 | 51.18156 | 3.61090 | 24251 ft | 454 kts | 28° |
| 2026-05-05 19:17 | 51.20919 | 3.63295 | 23919 ft | 452 kts | 24° |
| 2026-05-05 19:17 | 51.23921 | 3.65115 | 23563 ft | 451 kts | 17° |
| 2026-05-05 19:17 | 51.27054 | 3.66176 | 22916 ft | 448 kts | 7° |
| 2026-05-05 19:17 | 51.30095 | 3.66500 | 22209 ft | 448 kts | 1° |
| 2026-05-05 19:18 | 51.33215 | 3.66422 | 21384 ft | 449 kts | 358° |
| 2026-05-05 19:18 | 51.36332 | 3.66166 | 20623 ft | 448 kts | 356° |
| 2026-05-05 19:18 | 51.39428 | 3.65868 | 19951 ft | 444 kts | 356° |
| 2026-05-05 19:18 | 51.42496 | 3.65589 | 19295 ft | 440 kts | 357° |
| 2026-05-05 19:19 | 51.45526 | 3.65350 | 18649 ft | 434 kts | 357° |
| 2026-05-05 19:19 | 51.48521 | 3.65145 | 18025 ft | 429 kts | 358° |
| 2026-05-05 19:19 | 51.51466 | 3.64975 | 17407 ft | 424 kts | 358° |
| 2026-05-05 19:19 | 51.54310 | 3.64839 | 16807 ft | 420 kts | 359° |
| 2026-05-05 19:20 | 51.57274 | 3.64720 | 16169 ft | 415 kts | 359° |
| 2026-05-05 19:20 | 51.60142 | 3.64620 | 15551 ft | 411 kts | 359° |
| 2026-05-05 19:20 | 51.62967 | 3.64531 | 14943 ft | 406 kts | 359° |
| 2026-05-05 19:20 | 51.65713 | 3.64449 | 14376 ft | 388 kts | 359° |
| 2026-05-05 19:21 | 51.68338 | 3.64504 | 13841 ft | 370 kts | 5° |
| 2026-05-05 19:21 | 51.70835 | 3.65012 | 13311 ft | 354 kts | 11° |
| 2026-05-05 19:21 | 51.73143 | 3.65940 | 12994 ft | 337 kts | 23° |
| 2026-05-05 19:21 | 51.75056 | 3.67960 | 12548 ft | 322 kts | 46° |
| 2026-05-05 19:22 | 51.76476 | 3.70618 | 12298 ft | 306 kts | 53° |
| 2026-05-05 19:22 | 51.77743 | 3.73297 | 12063 ft | 298 kts | 53° |
| 2026-05-05 19:22 | 51.78999 | 3.75866 | 11782 ft | 293 kts | 51° |
| 2026-05-05 19:22 | 51.80320 | 3.78416 | 11409 ft | 292 kts | 50° |
| 2026-05-05 19:23 | 51.81630 | 3.80839 | 11051 ft | 290 kts | 49° |
| 2026-05-05 19:23 | 51.82977 | 3.83283 | 10688 ft | 289 kts | 48° |
| 2026-05-05 19:23 | 51.84305 | 3.85678 | 10331 ft | 287 kts | 48° |
| 2026-05-05 19:23 | 51.85624 | 3.88057 | 9953 ft | 286 kts | 48° |
| 2026-05-05 19:24 | 51.86952 | 3.90455 | 9567 ft | 284 kts | 48° |
| 2026-05-05 19:24 | 51.88256 | 3.92818 | 9186 ft | 283 kts | 48° |
| 2026-05-05 19:24 | 51.89567 | 3.95197 | 8803 ft | 281 kts | 48° |
| 2026-05-05 19:24 | 51.90855 | 3.97538 | 8428 ft | 280 kts | 48° |
| 2026-05-05 19:25 | 51.92135 | 3.99865 | 8111 ft | 276 kts | 48° |
| 2026-05-05 19:25 | 51.93407 | 4.02184 | 7862 ft | 276 kts | 48° |
| 2026-05-05 19:25 | 51.94694 | 4.04531 | 7607 ft | 276 kts | 48° |
| 2026-05-05 19:25 | 51.95952 | 4.06825 | 7356 ft | 274 kts | 47° |
| 2026-05-05 19:26 | 51.97203 | 4.09110 | 7104 ft | 272 kts | 47° |
| 2026-05-05 19:26 | 51.98450 | 4.11388 | 6921 ft | 269 kts | 47° |
| 2026-05-05 19:26 | 51.99693 | 4.13654 | 6917 ft | 269 kts | 47° |
| 2026-05-05 19:26 | 52.00939 | 4.15934 | 6841 ft | 266 kts | 47° |
| 2026-05-05 19:27 | 52.02152 | 4.18155 | 6486 ft | 265 kts | 47° |
| 2026-05-05 19:27 | 52.03372 | 4.20392 | 6109 ft | 265 kts | 47° |
| 2026-05-05 19:27 | 52.04591 | 4.22626 | 5750 ft | 263 kts | 47° |
| 2026-05-05 19:27 | 52.05782 | 4.24814 | 5408 ft | 262 kts | 47° |
| 2026-05-05 19:28 | 52.06979 | 4.27020 | 5078 ft | 259 kts | 47° |
| 2026-05-05 19:28 | 52.08171 | 4.29209 | 4747 ft | 257 kts | 47° |
| 2026-05-05 19:28 | 52.09334 | 4.31353 | 4423 ft | 254 kts | 47° |
| 2026-05-05 19:28 | 52.10489 | 4.33485 | 4099 ft | 252 kts | 47° |
| 2026-05-05 19:29 | 52.11663 | 4.35657 | 3773 ft | 250 kts | 47° |
| 2026-05-05 19:29 | 52.12798 | 4.37748 | 3444 ft | 248 kts | 47° |
| 2026-05-05 19:29 | 52.13928 | 4.39827 | 3125 ft | 246 kts | 46° |
| 2026-05-05 19:29 | 52.15061 | 4.41909 | 2872 ft | 241 kts | 47° |
| 2026-05-05 19:30 | 52.16139 | 4.43911 | 2661 ft | 236 kts | 48° |
| 2026-05-05 19:30 | 52.17226 | 4.45905 | 2444 ft | 230 kts | 42° |
| 2026-05-05 19:30 | 52.18420 | 4.47563 | 2245 ft | 224 kts | 38° |
| 2026-05-05 19:30 | 52.19518 | 4.49324 | 2034 ft | 220 kts | 47° |
| 2026-05-05 19:31 | 52.20312 | 4.51381 | 1980 ft | 212 kts | 58° |
| 2026-05-05 19:31 | 52.21020 | 4.53474 | 1985 ft | 209 kts | 55° |
| 2026-05-05 19:31 | 52.21801 | 4.55397 | 1987 ft | 196 kts | 54° |
| 2026-05-05 19:31 | 52.22560 | 4.57145 | 1997 ft | 183 kts | 53° |
| 2026-05-05 19:32 | 52.23197 | 4.58878 | 2011 ft | 169 kts | 58° |
| 2026-05-05 19:32 | 52.23750 | 4.60463 | 1935 ft | 156 kts | 54° |
| 2026-05-05 19:32 | 52.24361 | 4.61795 | 1812 ft | 148 kts | 49° |
| 2026-05-05 19:32 | 52.24860 | 4.63244 | 1558 ft | 144 kts | 64° |
| 2026-05-05 19:33 | 52.25294 | 4.64648 | 1341 ft | 135 kts | 53° |
| 2026-05-05 19:33 | 52.25882 | 4.65839 | 1182 ft | 135 kts | 57° |
| 2026-05-05 19:33 | 52.26390 | 4.67117 | 972 ft | 131 kts | 59° |
| 2026-05-05 19:33 | 52.26819 | 4.68360 | 777 ft | 141 kts | 55° |
| 2026-05-05 19:34 | 52.27190 | 4.69263 | 768 ft | 136 kts | 54° |
| 2026-05-05 19:34 | 52.28169 | 4.71721 | 399 ft | 145 kts | 57° |
| 2026-05-05 19:35 | 52.29649 | 4.75334 | -1 ft | 12 kts | 333° |
| 2026-05-05 19:36 | 52.29687 | 4.75297 | -1 ft | 6 kts | 330° |
| 2026-05-05 19:36 | 52.29730 | 4.75287 | 0 ft | 6 kts | 20° |
| 2026-05-05 19:36 | 52.29760 | 4.75344 | -1 ft | 8 kts | 71° |
| 2026-05-05 19:36 | 52.29791 | 4.75456 | 0 ft | 12 kts | 60° |
| 2026-05-05 19:37 | 52.29846 | 4.75600 | -1 ft | 17 kts | 58° |
| 2026-05-05 19:37 | 52.29915 | 4.75779 | -1 ft | 19 kts | 57° |
| 2026-05-05 19:37 | 52.29982 | 4.75962 | 0 ft | 18 kts | 59° |
| 2026-05-05 19:37 | 52.30052 | 4.76142 | 0 ft | 18 kts | 56° |
| 2026-05-05 19:38 | 52.30119 | 4.76318 | 0 ft | 18 kts | 58° |
| 2026-05-05 19:38 | 52.30186 | 4.76491 | -1 ft | 17 kts | 57° |
| 2026-05-05 19:38 | 52.30251 | 4.76663 | 0 ft | 17 kts | 58° |
| 2026-05-05 19:38 | 52.30338 | 4.76695 | -1 ft | 15 kts | 294° |
| 2026-05-05 19:39 | 52.30371 | 4.76578 | -1 ft | 11 kts | 322° |
| 2026-05-05 19:39 | 52.30438 | 4.76507 | -1 ft | 9 kts | 327° |
| 2026-05-05 19:39 | 52.30481 | 4.76490 | 0 ft | 5 kts | 36° |
| 2026-05-05 19:39 | 52.30502 | 4.76535 | 0 ft | 4 kts | 62° |
| 2026-05-05 19:40 | 52.30506 | 4.76547 | 0 ft | 0 kts | 60° |
| 2026-05-05 19:40 | 52.30506 | 4.76549 | 0 ft | 0 kts | 59° |